sensor_id;sensor_type;location;lat;lon;timestamp;pressure;altitude;pressure_sealevel;temperature;humidity
22743;BME280;11538;48.884;8.696;2023-04-03T00:01:07;99553.34;;;5.96;69.04
22743;BME280;11538;48.884;8.696;2023-04-03T00:03:34;99548.22;;;5.94;69.12
22743;BME280;11538;48.884;8.696;2023-04-03T00:06:03;99552.63;;;6.00;69.03
22743;BME280;11538;48.884;8.696;2023-04-03T00:08:32;99547.72;;;5.97;69.39
22743;BME280;11538;48.884;8.696;2023-04-03T00:10:59;99542.81;;;5.94;69.45
22743;BME280;11538;48.884;8.696;2023-04-03T00:13:27;99541.94;;;5.89;69.43
22743;BME280;11538;48.884;8.696;2023-04-03T00:15:54;99542.69;;;5.84;69.60
22743;BME280;11538;48.884;8.696;2023-04-03T00:18:22;99543.00;;;5.88;69.61
22743;BME280;11538;48.884;8.696;2023-04-03T00:20:49;99542.19;;;5.87;69.89
22743;BME280;11538;48.884;8.696;2023-04-03T00:23:16;99549.50;;;5.92;69.97
22743;BME280;11538;48.884;8.696;2023-04-03T00:25:44;99548.94;;;5.90;69.55
22743;BME280;11538;48.884;8.696;2023-04-03T00:28:11;99553.75;;;5.88;69.75
22743;BME280;11538;48.884;8.696;2023-04-03T00:30:38;99555.66;;;5.87;69.98
22743;BME280;11538;48.884;8.696;2023-04-03T00:33:06;99547.88;;;5.91;69.57
22743;BME280;11538;48.884;8.696;2023-04-03T00:35:34;99545.44;;;5.89;69.88
22743;BME280;11538;48.884;8.696;2023-04-03T00:38:01;99552.13;;;5.86;69.80
22743;BME280;11538;48.884;8.696;2023-04-03T00:40:36;99545.13;;;5.85;70.26
22743;BME280;11538;48.884;8.696;2023-04-03T00:43:20;99539.25;;;5.89;69.84
22743;BME280;11538;48.884;8.696;2023-04-03T00:45:53;99545.25;;;5.96;69.54
22743;BME280;11538;48.884;8.696;2023-04-03T00:48:28;99541.19;;;5.93;69.51
22743;BME280;11538;48.884;8.696;2023-04-03T00:50:57;99547.59;;;5.87;70.01
22743;BME280;11538;48.884;8.696;2023-04-03T00:53:46;99548.25;;;5.77;70.75
22743;BME280;11538;48.884;8.696;2023-04-03T00:56:19;99547.75;;;5.80;70.78
22743;BME280;11538;48.884;8.696;2023-04-03T00:58:59;99542.13;;;5.82;70.17
22743;BME280;11538;48.884;8.696;2023-04-03T01:01:28;99544.25;;;5.80;70.34
22743;BME280;11538;48.884;8.696;2023-04-03T01:03:55;99534.56;;;5.79;70.51
22743;BME280;11538;48.884;8.696;2023-04-03T01:06:31;99542.00;;;5.71;70.49
22743;BME280;11538;48.884;8.696;2023-04-03T01:09:00;99545.50;;;5.72;70.51
22743;BME280;11538;48.884;8.696;2023-04-03T01:11:28;99537.34;;;5.67;70.67
22743;BME280;11538;48.884;8.696;2023-04-03T01:13:54;99547.38;;;5.71;70.74
22743;BME280;11538;48.884;8.696;2023-04-03T01:16:21;99540.78;;;5.62;71.21
22743;BME280;11538;48.884;8.696;2023-04-03T01:18:49;99537.69;;;5.70;71.45
22743;BME280;11538;48.884;8.696;2023-04-03T01:21:46;99541.59;;;5.63;71.77
22743;BME280;11538;48.884;8.696;2023-04-03T01:24:35;99544.84;;;5.65;71.56
22743;BME280;11538;48.884;8.696;2023-04-03T01:27:06;99543.22;;;5.64;71.26
22743;BME280;11538;48.884;8.696;2023-04-03T01:29:35;99541.22;;;5.54;72.13
22743;BME280;11538;48.884;8.696;2023-04-03T01:32:03;99539.03;;;5.51;72.34
22743;BME280;11538;48.884;8.696;2023-04-03T01:34:31;99543.19;;;5.41;72.52
22743;BME280;11538;48.884;8.696;2023-04-03T01:36:58;99537.31;;;5.45;72.93
22743;BME280;11538;48.884;8.696;2023-04-03T01:39:25;99548.16;;;5.50;73.24
22743;BME280;11538;48.884;8.696;2023-04-03T01:41:52;99545.47;;;5.50;72.77
22743;BME280;11538;48.884;8.696;2023-04-03T01:44:22;99548.16;;;5.50;72.81
22743;BME280;11538;48.884;8.696;2023-04-03T01:46:48;99545.97;;;5.47;72.49
22743;BME280;11538;48.884;8.696;2023-04-03T01:49:15;99549.66;;;5.40;72.85
22743;BME280;11538;48.884;8.696;2023-04-03T01:51:42;99548.00;;;5.39;72.64
22743;BME280;11538;48.884;8.696;2023-04-03T01:54:09;99552.72;;;5.49;72.65
22743;BME280;11538;48.884;8.696;2023-04-03T01:56:36;99553.13;;;5.41;72.91
22743;BME280;11538;48.884;8.696;2023-04-03T01:59:03;99550.44;;;5.41;73.22
22743;BME280;11538;48.884;8.696;2023-04-03T02:01:29;99553.88;;;5.36;73.11
22743;BME280;11538;48.884;8.696;2023-04-03T02:03:56;99561.38;;;5.34;73.22
22743;BME280;11538;48.884;8.696;2023-04-03T02:06:24;99557.31;;;5.32;73.83
22743;BME280;11538;48.884;8.696;2023-04-03T02:08:51;99560.47;;;5.29;73.60
22743;BME280;11538;48.884;8.696;2023-04-03T02:11:18;99562.44;;;5.16;74.00
22743;BME280;11538;48.884;8.696;2023-04-03T02:13:45;99563.25;;;5.17;74.85
22743;BME280;11538;48.884;8.696;2023-04-03T02:16:12;99558.34;;;5.31;73.92
22743;BME280;11538;48.884;8.696;2023-04-03T02:18:40;99559.84;;;5.38;73.22
22743;BME280;11538;48.884;8.696;2023-04-03T02:21:07;99564.06;;;5.34;73.15
22743;BME280;11538;48.884;8.696;2023-04-03T02:23:33;99554.94;;;5.35;73.39
22743;BME280;11538;48.884;8.696;2023-04-03T02:26:14;99558.13;;;5.32;73.72
22743;BME280;11538;48.884;8.696;2023-04-03T02:28:42;99555.09;;;5.29;73.30
22743;BME280;11538;48.884;8.696;2023-04-03T02:31:10;99553.38;;;5.22;73.70
22743;BME280;11538;48.884;8.696;2023-04-03T02:33:37;99550.06;;;5.15;74.00
22743;BME280;11538;48.884;8.696;2023-04-03T02:36:06;99557.28;;;5.15;74.02
22743;BME280;11538;48.884;8.696;2023-04-03T02:38:34;99557.13;;;5.04;74.41
22743;BME280;11538;48.884;8.696;2023-04-03T02:41:04;99556.16;;;4.93;75.17
22743;BME280;11538;48.884;8.696;2023-04-03T02:43:32;99551.44;;;5.01;75.39
22743;BME280;11538;48.884;8.696;2023-04-03T02:45:59;99549.31;;;5.03;75.17
22743;BME280;11538;48.884;8.696;2023-04-03T02:48:26;99546.28;;;4.99;75.39
22743;BME280;11538;48.884;8.696;2023-04-03T02:50:53;99550.78;;;4.93;75.60
22743;BME280;11538;48.884;8.696;2023-04-03T02:53:20;99550.28;;;4.96;75.22
22743;BME280;11538;48.884;8.696;2023-04-03T02:55:48;99551.59;;;4.94;75.42
22743;BME280;11538;48.884;8.696;2023-04-03T02:58:15;99539.13;;;4.88;75.58
22743;BME280;11538;48.884;8.696;2023-04-03T03:00:42;99547.84;;;4.95;75.82
22743;BME280;11538;48.884;8.696;2023-04-03T03:03:09;99547.34;;;4.98;75.14
22743;BME280;11538;48.884;8.696;2023-04-03T03:05:37;99541.16;;;4.97;74.58
22743;BME280;11538;48.884;8.696;2023-04-03T03:08:03;99544.16;;;5.01;74.70
22743;BME280;11538;48.884;8.696;2023-04-03T03:10:30;99546.16;;;5.06;74.57
22743;BME280;11538;48.884;8.696;2023-04-03T03:12:57;99546.38;;;5.04;74.22
22743;BME280;11538;48.884;8.696;2023-04-03T03:15:24;99544.34;;;4.94;75.09
22743;BME280;11538;48.884;8.696;2023-04-03T03:17:51;99543.78;;;4.92;75.30
22743;BME280;11538;48.884;8.696;2023-04-03T03:20:18;99547.34;;;4.98;75.17
22743;BME280;11538;48.884;8.696;2023-04-03T03:22:45;99544.25;;;4.89;75.31
22743;BME280;11538;48.884;8.696;2023-04-03T03:25:11;99541.00;;;4.87;75.59
22743;BME280;11538;48.884;8.696;2023-04-03T03:27:38;99543.69;;;4.87;75.44
22743;BME280;11538;48.884;8.696;2023-04-03T03:30:06;99547.19;;;4.88;76.03
22743;BME280;11538;48.884;8.696;2023-04-03T03:32:33;99542.47;;;4.95;75.93
22743;BME280;11538;48.884;8.696;2023-04-03T03:35:00;99538.88;;;4.89;75.61
22743;BME280;11538;48.884;8.696;2023-04-03T03:37:27;99547.19;;;4.88;76.36
22743;BME280;11538;48.884;8.696;2023-04-03T03:39:54;99541.75;;;5.00;76.72
22743;BME280;11538;48.884;8.696;2023-04-03T03:42:21;99539.19;;;4.93;76.72
22743;BME280;11538;48.884;8.696;2023-04-03T03:44:48;99536.81;;;4.79;77.16
22743;BME280;11538;48.884;8.696;2023-04-03T03:47:15;99533.66;;;4.82;77.58
22743;BME280;11538;48.884;8.696;2023-04-03T03:49:42;99533.56;;;4.77;76.51
22743;BME280;11538;48.884;8.696;2023-04-03T03:52:09;99531.22;;;4.81;76.51
22743;BME280;11538;48.884;8.696;2023-04-03T03:54:37;99543.78;;;4.92;76.01
22743;BME280;11538;48.884;8.696;2023-04-03T03:57:04;99537.00;;;4.90;75.88
22743;BME280;11538;48.884;8.696;2023-04-03T03:59:31;99546.69;;;4.91;74.93
22743;BME280;11538;48.884;8.696;2023-04-03T04:01:58;99544.84;;;4.91;75.37
22743;BME280;11538;48.884;8.696;2023-04-03T04:04:25;99545.31;;;4.88;75.54
22743;BME280;11538;48.884;8.696;2023-04-03T04:06:52;99544.50;;;4.88;75.28
22743;BME280;11538;48.884;8.696;2023-04-03T04:09:19;99545.41;;;4.93;75.18
22743;BME280;11538;48.884;8.696;2023-04-03T04:11:46;99550.03;;;4.98;74.62
22743;BME280;11538;48.884;8.696;2023-04-03T04:14:12;99543.28;;;4.95;74.51
22743;BME280;11538;48.884;8.696;2023-04-03T04:16:40;99549.88;;;4.88;74.69
22743;BME280;11538;48.884;8.696;2023-04-03T04:19:06;99547.19;;;4.88;74.26
22743;BME280;11538;48.884;8.696;2023-04-03T04:21:34;99548.81;;;4.89;73.87
22743;BME280;11538;48.884;8.696;2023-04-03T04:24:01;99548.00;;;4.88;74.26
22743;BME280;11538;48.884;8.696;2023-04-03T04:26:28;99545.56;;;4.87;73.67
22743;BME280;11538;48.884;8.696;2023-04-03T04:28:55;99543.34;;;4.83;73.98
22743;BME280;11538;48.884;8.696;2023-04-03T04:31:22;99556.31;;;4.87;73.46
22743;BME280;11538;48.884;8.696;2023-04-03T04:33:49;99547.84;;;4.95;73.40
22743;BME280;11538;48.884;8.696;2023-04-03T04:36:16;99559.25;;;5.02;73.25
22743;BME280;11538;48.884;8.696;2023-04-03T04:38:43;99554.84;;;4.96;73.04
22743;BME280;11538;48.884;8.696;2023-04-03T04:41:10;99555.34;;;4.93;73.25
22743;BME280;11538;48.884;8.696;2023-04-03T04:43:37;99553.47;;;4.93;73.39
22743;BME280;11538;48.884;8.696;2023-04-03T04:46:13;99551.59;;;4.94;73.39
22743;BME280;11538;48.884;8.696;2023-04-03T04:48:40;99555.19;;;5.00;73.48
22743;BME280;11538;48.884;8.696;2023-04-03T04:51:07;99552.91;;;4.91;72.54
22743;BME280;11538;48.884;8.696;2023-04-03T04:53:34;99556.31;;;4.87;73.16
22743;BME280;11538;48.884;8.696;2023-04-03T04:56:01;99550.53;;;4.95;72.49
22743;BME280;11538;48.884;8.696;2023-04-03T04:58:28;99554.84;;;4.96;72.83
22743;BME280;11538;48.884;8.696;2023-04-03T05:01:07;99559.06;;;4.92;72.29
22743;BME280;11538;48.884;8.696;2023-04-03T05:03:34;99560.88;;;4.86;72.03
22743;BME280;11538;48.884;8.696;2023-04-03T05:06:02;99559.06;;;4.92;72.21
22743;BME280;11538;48.884;8.696;2023-04-03T05:08:29;99562.13;;;4.95;72.42
22743;BME280;11538;48.884;8.696;2023-04-03T05:10:56;99571.97;;;5.07;71.71
22743;BME280;11538;48.884;8.696;2023-04-03T05:13:23;99563.66;;;5.08;70.36
22743;BME280;11538;48.884;8.696;2023-04-03T05:15:50;99563.16;;;5.11;70.29
22743;BME280;11538;48.884;8.696;2023-04-03T05:18:17;99566.41;;;5.13;69.93
22743;BME280;11538;48.884;8.696;2023-04-03T05:20:44;99571.31;;;5.17;69.71
22743;BME280;11538;48.884;8.696;2023-04-03T05:23:11;99569.94;;;5.14;69.64
22743;BME280;11538;48.884;8.696;2023-04-03T05:25:38;99573.50;;;5.20;69.50
22743;BME280;11538;48.884;8.696;2023-04-03T05:28:06;99583.69;;;5.18;69.25
22743;BME280;11538;48.884;8.696;2023-04-03T05:30:33;99581.50;;;5.15;69.27
22743;BME280;11538;48.884;8.696;2023-04-03T05:33:01;99584.03;;;5.21;69.02
22743;BME280;11538;48.884;8.696;2023-04-03T05:35:28;99585.41;;;5.24;68.69
22743;BME280;11538;48.884;8.696;2023-04-03T05:37:56;99598.94;;;5.29;68.99
22743;BME280;11538;48.884;8.696;2023-04-03T05:40:22;99595.88;;;5.37;69.02
22743;BME280;11538;48.884;8.696;2023-04-03T05:42:49;99593.81;;;5.27;69.03
22743;BME280;11538;48.884;8.696;2023-04-03T05:45:16;99595.50;;;5.17;69.22
22743;BME280;11538;48.884;8.696;2023-04-03T05:47:43;99595.34;;;5.06;69.92
22743;BME280;11538;48.884;8.696;2023-04-03T05:50:10;99598.69;;;5.13;70.15
22743;BME280;11538;48.884;8.696;2023-04-03T05:52:41;99597.72;;;5.20;69.70
22743;BME280;11538;48.884;8.696;2023-04-03T05:55:09;99603.34;;;5.18;69.62
22743;BME280;11538;48.884;8.696;2023-04-03T05:57:36;99605.47;;;5.16;70.46
22743;BME280;11538;48.884;8.696;2023-04-03T06:00:11;99604.06;;;5.13;70.62
22743;BME280;11538;48.884;8.696;2023-04-03T06:02:39;99607.81;;;5.12;70.79
22743;BME280;11538;48.884;8.696;2023-04-03T06:05:07;99606.84;;;5.19;70.58
22743;BME280;11538;48.884;8.696;2023-04-03T06:07:35;99608.47;;;5.20;70.77
22743;BME280;11538;48.884;8.696;2023-04-03T06:10:03;99616.31;;;5.21;70.99
22743;BME280;11538;48.884;8.696;2023-04-03T06:12:30;99606.13;;;5.23;70.30
22743;BME280;11538;48.884;8.696;2023-04-03T06:14:58;99610.31;;;5.31;70.38
22743;BME280;11538;48.884;8.696;2023-04-03T06:17:25;99609.41;;;5.43;69.69
22743;BME280;11538;48.884;8.696;2023-04-03T06:19:51;99604.34;;;5.46;69.22
22743;BME280;11538;48.884;8.696;2023-04-03T06:22:23;99608.44;;;5.49;69.58
22743;BME280;11538;48.884;8.696;2023-04-03T06:24:52;99608.34;;;5.44;69.10
22743;BME280;11538;48.884;8.696;2023-04-03T06:27:19;99611.34;;;5.47;69.06
22743;BME280;11538;48.884;8.696;2023-04-03T06:29:46;99615.34;;;5.45;68.64
22743;BME280;11538;48.884;8.696;2023-04-03T06:32:12;99614.22;;;5.40;68.77
22743;BME280;11538;48.884;8.696;2023-04-03T06:34:39;99611.44;;;5.35;68.85
22743;BME280;11538;48.884;8.696;2023-04-03T06:37:06;99610.75;;;5.28;69.32
22743;BME280;11538;48.884;8.696;2023-04-03T06:39:33;99617.94;;;5.22;69.74
22743;BME280;11538;48.884;8.696;2023-04-03T06:42:00;99617.47;;;5.25;70.01
22743;BME280;11538;48.884;8.696;2023-04-03T06:44:27;99620.22;;;5.31;69.63
22743;BME280;11538;48.884;8.696;2023-04-03T06:46:54;99624.50;;;5.44;68.94
22743;BME280;11538;48.884;8.696;2023-04-03T06:49:21;99623.31;;;5.56;68.35
22743;BME280;11538;48.884;8.696;2023-04-03T06:51:48;99622.25;;;5.57;68.90
22743;BME280;11538;48.884;8.696;2023-04-03T06:54:15;99624.97;;;5.57;68.77
22743;BME280;11538;48.884;8.696;2023-04-03T06:56:42;99622.03;;;5.59;68.98
22743;BME280;11538;48.884;8.696;2023-04-03T06:59:11;99629.13;;;5.65;68.71
22743;BME280;11538;48.884;8.696;2023-04-03T07:01:39;99629.13;;;5.65;67.89
22743;BME280;11538;48.884;8.696;2023-04-03T07:04:07;99630.50;;;5.68;68.25
22743;BME280;11538;48.884;8.696;2023-04-03T07:06:35;99635.22;;;5.78;68.44
22743;BME280;11538;48.884;8.696;2023-04-03T07:09:02;99638.16;;;5.76;68.32
22743;BME280;11538;48.884;8.696;2023-04-03T07:11:30;99640.63;;;5.78;67.79
22743;BME280;11538;48.884;8.696;2023-04-03T07:13:57;99647.44;;;5.85;68.19
22743;BME280;11538;48.884;8.696;2023-04-03T07:16:24;99648.69;;;5.78;68.34
22743;BME280;11538;48.884;8.696;2023-04-03T07:18:51;99657.63;;;5.83;68.35
22743;BME280;11538;48.884;8.696;2023-04-03T07:21:18;99648.97;;;5.98;68.71
22743;BME280;11538;48.884;8.696;2023-04-03T07:23:45;99654.94;;;6.18;67.69
22743;BME280;11538;48.884;8.696;2023-04-03T07:26:12;99648.91;;;6.10;67.49
22743;BME280;11538;48.884;8.696;2023-04-03T07:28:38;99657.16;;;6.04;68.00
22743;BME280;11538;48.884;8.696;2023-04-03T07:31:11;99664.03;;;6.11;68.02
22743;BME280;11538;48.884;8.696;2023-04-03T07:33:41;99662.44;;;5.98;68.18
22743;BME280;11538;48.884;8.696;2023-04-03T07:36:10;99670.53;;;5.98;68.57
22743;BME280;11538;48.884;8.696;2023-04-03T07:38:37;99667.50;;;5.95;68.70
22743;BME280;11538;48.884;8.696;2023-04-03T07:41:04;99667.50;;;6.12;69.05
22743;BME280;11538;48.884;8.696;2023-04-03T07:43:32;99665.16;;;6.16;68.95
22743;BME280;11538;48.884;8.696;2023-04-03T07:46:00;99675.31;;;6.31;68.15
22743;BME280;11538;48.884;8.696;2023-04-03T07:48:27;99677.56;;;6.39;68.29
22743;BME280;11538;48.884;8.696;2023-04-03T07:51:00;99675.81;;;6.50;67.80
22743;BME280;11538;48.884;8.696;2023-04-03T07:53:28;99673.63;;;6.47;68.34
22743;BME280;11538;48.884;8.696;2023-04-03T07:55:58;99681.31;;;6.38;68.46
22743;BME280;11538;48.884;8.696;2023-04-03T07:58:25;99672.06;;;6.51;68.55
22743;BME280;11538;48.884;8.696;2023-04-03T08:00:52;99682.59;;;6.52;68.02
22743;BME280;11538;48.884;8.696;2023-04-03T08:03:19;99681.66;;;6.64;67.38
22743;BME280;11538;48.884;8.696;2023-04-03T08:05:49;99686.97;;;6.58;67.81
22743;BME280;11538;48.884;8.696;2023-04-03T08:08:20;99682.22;;;6.66;67.64
22743;BME280;11538;48.884;8.696;2023-04-03T08:10:53;99692.38;;;6.81;68.05
22743;BME280;11538;48.884;8.696;2023-04-03T08:13:21;99692.03;;;7.27;66.98
22743;BME280;11538;48.884;8.696;2023-04-03T08:15:48;99684.59;;;7.39;65.39
22743;BME280;11538;48.884;8.696;2023-04-03T08:18:15;99688.34;;;7.66;65.03
22743;BME280;11538;48.884;8.696;2023-04-03T08:20:43;99694.72;;;7.92;64.43
22743;BME280;11538;48.884;8.696;2023-04-03T08:23:10;99690.16;;;7.93;64.78
22743;BME280;11538;48.884;8.696;2023-04-03T08:25:39;99691.72;;;7.51;65.02
22743;BME280;11538;48.884;8.696;2023-04-03T08:28:08;99687.75;;;7.31;65.57
22743;BME280;11538;48.884;8.696;2023-04-03T08:30:35;99695.25;;;7.24;65.89
22743;BME280;11538;48.884;8.696;2023-04-03T08:33:03;99691.06;;;7.38;65.59
22743;BME280;11538;48.884;8.696;2023-04-03T08:35:30;99690.03;;;7.44;65.27
22743;BME280;11538;48.884;8.696;2023-04-03T08:37:57;99685.19;;;7.46;65.80
22743;BME280;11538;48.884;8.696;2023-04-03T08:40:24;99693.31;;;7.46;65.59
22743;BME280;11538;48.884;8.696;2023-04-03T08:43:03;99692.81;;;7.55;65.67
22743;BME280;11538;48.884;8.696;2023-04-03T08:45:48;99683.00;;;7.76;65.24
22743;BME280;11538;48.884;8.696;2023-04-03T08:48:33;99687.16;;;7.89;64.28
22743;BME280;11538;48.884;8.696;2023-04-03T08:51:12;99696.81;;;7.80;64.17
22743;BME280;11538;48.884;8.696;2023-04-03T08:53:56;99684.28;;;7.68;64.35
22743;BME280;11538;48.884;8.696;2023-04-03T08:56:26;99683.47;;;8.00;63.78
22743;BME280;11538;48.884;8.696;2023-04-03T08:59:05;99693.47;;;8.05;62.96
22743;BME280;11538;48.884;8.696;2023-04-03T09:01:41;99695.78;;;7.86;63.46
22743;BME280;11538;48.884;8.696;2023-04-03T09:04:14;99690.00;;;7.72;63.73
22743;BME280;11538;48.884;8.696;2023-04-03T09:06:53;99697.28;;;7.71;64.19
22743;BME280;11538;48.884;8.696;2023-04-03T09:09:38;99689.97;;;8.04;62.43
22743;BME280;11538;48.884;8.696;2023-04-03T09:12:27;99690.78;;;8.05;62.59
22743;BME280;11538;48.884;8.696;2023-04-03T09:15:08;99686.72;;;8.02;62.63
22743;BME280;11538;48.884;8.696;2023-04-03T09:18:20;99681.84;;;7.99;62.43
22743;BME280;11538;48.884;8.696;2023-04-03T09:21:21;99689.94;;;7.99;62.78
22743;BME280;11538;48.884;8.696;2023-04-03T09:23:55;99694.06;;;8.60;61.37
22743;BME280;11538;48.884;8.696;2023-04-03T09:26:39;99690.97;;;9.05;58.71
22743;BME280;11538;48.884;8.696;2023-04-03T09:29:08;99685.53;;;8.89;58.15
22743;BME280;11538;48.884;8.696;2023-04-03T09:31:42;99686.63;;;8.99;57.54
22743;BME280;11538;48.884;8.696;2023-04-03T09:36:59;99683.63;;;8.90;56.72
22743;BME280;11538;48.884;8.696;2023-04-03T09:39:49;99684.41;;;8.80;56.67
22743;BME280;11538;48.884;8.696;2023-04-03T09:42:25;99687.22;;;9.21;56.46
22743;BME280;11538;48.884;8.696;2023-04-03T09:52:43;99681.69;;;8.75;54.83
22743;BME280;11538;48.884;8.696;2023-04-03T09:55:17;99693.25;;;8.60;55.62
22743;BME280;11538;48.884;8.696;2023-04-03T09:57:46;99683.78;;;8.57;54.29
22743;BME280;11538;48.884;8.696;2023-04-03T10:00:25;99684.91;;;8.72;54.20
22743;BME280;11538;48.884;8.696;2023-04-03T10:02:55;99677.63;;;8.72;54.84
22743;BME280;11538;48.884;8.696;2023-04-03T10:08:30;99679.00;;;8.85;53.58
22743;BME280;11538;48.884;8.696;2023-04-03T10:11:16;99679.84;;;8.86;53.73
22743;BME280;11538;48.884;8.696;2023-04-03T10:13:55;99672.22;;;8.67;53.62
22743;BME280;11538;48.884;8.696;2023-04-03T10:19:09;99671.28;;;8.46;53.83
22743;BME280;11538;48.884;8.696;2023-04-03T10:21:55;99666.91;;;8.34;53.13
22743;BME280;11538;48.884;8.696;2023-04-03T10:24:54;99669.59;;;8.34;53.94
22743;BME280;11538;48.884;8.696;2023-04-03T10:27:32;99664.75;;;8.42;52.98
22743;BME280;11538;48.884;8.696;2023-04-03T10:30:32;99666.06;;;8.34;52.25
22743;BME280;11538;48.884;8.696;2023-04-03T10:33:28;99675.50;;;8.26;53.23
22743;BME280;11538;48.884;8.696;2023-04-03T10:36:12;99672.25;;;8.24;52.88
22743;BME280;11538;48.884;8.696;2023-04-03T10:42:08;99674.13;;;8.24;53.01
22743;BME280;11538;48.884;8.696;2023-04-03T10:47:40;99670.63;;;8.23;52.69
22743;BME280;11538;48.884;8.696;2023-04-03T10:53:44;99667.00;;;8.50;51.65
22743;BME280;11538;48.884;8.696;2023-04-03T10:56:31;99671.91;;;8.58;51.01
22743;BME280;11538;48.884;8.696;2023-04-03T10:59:23;99662.16;;;8.57;50.08
22743;BME280;11538;48.884;8.696;2023-04-03T11:01:57;99660.44;;;8.41;50.80
22743;BME280;11538;48.884;8.696;2023-04-03T11:04:30;99663.91;;;8.36;51.41
22743;BME280;11538;48.884;8.696;2023-04-03T11:07:15;99675.53;;;8.31;50.90
22743;BME280;11538;48.884;8.696;2023-04-03T11:09:50;99673.31;;;8.18;51.69
22743;BME280;11538;48.884;8.696;2023-04-03T11:12:56;99665.13;;;8.08;52.02
22743;BME280;11538;48.884;8.696;2023-04-03T11:15:29;99661.63;;;8.12;51.40
22743;BME280;11538;48.884;8.696;2023-04-03T11:18:14;99658.75;;;8.24;51.56
22743;BME280;11538;48.884;8.696;2023-04-03T11:21:00;99655.50;;;8.27;50.89
22743;BME280;11538;48.884;8.696;2023-04-03T11:23:37;99650.63;;;8.24;51.65
22743;BME280;11538;48.884;8.696;2023-04-03T11:26:19;99656.25;;;8.17;51.69
22743;BME280;11538;48.884;8.696;2023-04-03T11:28:57;99655.94;;;8.03;52.06
22743;BME280;11538;48.884;8.696;2023-04-03T11:34:49;99659.66;;;7.97;51.43
22743;BME280;11538;48.884;8.696;2023-04-03T11:37:41;99661.19;;;7.88;51.43
22743;BME280;11538;48.884;8.696;2023-04-03T11:40:29;99658.59;;;7.98;50.58
22743;BME280;11538;48.884;8.696;2023-04-03T11:45:33;99640.38;;;8.26;50.33
22743;BME280;11538;48.884;8.696;2023-04-03T11:48:09;99643.94;;;8.42;50.36
22743;BME280;11538;48.884;8.696;2023-04-03T11:50:52;99638.53;;;8.42;50.23
22743;BME280;11538;48.884;8.696;2023-04-03T11:53:36;99633.94;;;8.43;48.54
22743;BME280;11538;48.884;8.696;2023-04-03T12:01:56;99634.53;;;8.50;50.22
22743;BME280;11538;48.884;8.696;2023-04-03T12:04:27;99634.53;;;8.50;50.23
22743;BME280;11538;48.884;8.696;2023-04-03T12:07:13;99626.16;;;8.52;50.57
22743;BME280;11538;48.884;8.696;2023-04-03T12:12:35;99627.34;;;8.76;49.49
22743;BME280;11538;48.884;8.696;2023-04-03T12:15:46;99631.41;;;8.89;48.78
22743;BME280;11538;48.884;8.696;2023-04-03T12:21:17;99622.25;;;9.63;46.25
22743;BME280;11538;48.884;8.696;2023-04-03T12:24:24;99624.09;;;9.88;46.19
22743;BME280;11538;48.884;8.696;2023-04-03T12:29:33;99628.22;;;9.34;46.15
22743;BME280;11538;48.884;8.696;2023-04-03T12:32:40;99624.94;;;9.21;46.82
22743;BME280;11538;48.884;8.696;2023-04-03T12:35:27;99627.41;;;9.18;47.08
22743;BME280;11538;48.884;8.696;2023-04-03T12:41:36;99619.81;;;9.04;47.88
22743;BME280;11538;48.884;8.696;2023-04-03T12:44:31;99614.09;;;9.01;47.55
22743;BME280;11538;48.884;8.696;2023-04-03T12:47:24;99602.72;;;8.83;47.91
22743;BME280;11538;48.884;8.696;2023-04-03T12:49:53;99612.19;;;8.86;48.31
22743;BME280;11538;48.884;8.696;2023-04-03T12:52:56;99608.97;;;8.94;48.18
22743;BME280;11538;48.884;8.696;2023-04-03T12:55:24;99610.84;;;8.93;48.62
22743;BME280;11538;48.884;8.696;2023-04-03T12:57:52;99614.41;;;9.04;48.25
22743;BME280;11538;48.884;8.696;2023-04-03T13:00:34;99611.94;;;9.13;47.42
22743;BME280;11538;48.884;8.696;2023-04-03T13:03:03;99601.94;;;9.14;46.44
22743;BME280;11538;48.884;8.696;2023-04-03T13:05:32;99603.81;;;9.08;46.75
22743;BME280;11538;48.884;8.696;2023-04-03T13:08:12;99613.28;;;8.90;46.74
22743;BME280;11538;48.884;8.696;2023-04-03T13:11:05;99611.13;;;8.82;46.81
22743;BME280;11538;48.884;8.696;2023-04-03T13:13:32;99611.88;;;8.67;46.57
22743;BME280;11538;48.884;8.696;2023-04-03T13:16:08;99608.84;;;8.53;46.25
22743;BME280;11538;48.884;8.696;2023-04-03T13:18:37;99611.84;;;8.56;46.23
22743;BME280;11538;48.884;8.696;2023-04-03T13:21:13;99611.88;;;8.72;46.25
22743;BME280;11538;48.884;8.696;2023-04-03T13:23:50;99607.03;;;8.79;45.99
22743;BME280;11538;48.884;8.696;2023-04-03T13:26:28;99605.97;;;8.90;46.15
22743;BME280;11538;48.884;8.696;2023-04-03T13:29:03;99607.06;;;8.89;46.09
22743;BME280;11538;48.884;8.696;2023-04-03T13:31:38;99602.47;;;8.80;46.67
22743;BME280;11538;48.884;8.696;2023-04-03T13:36:42;99608.91;;;8.63;47.87
22743;BME280;11538;48.884;8.696;2023-04-03T13:41:45;99602.19;;;8.91;47.37
22743;BME280;11538;48.884;8.696;2023-04-03T13:46:54;99600.06;;;9.30;47.01
22743;BME280;11538;48.884;8.696;2023-04-03T13:49:38;99595.72;;;9.24;45.49
22743;BME280;11538;48.884;8.696;2023-04-03T13:52:30;99593.28;;;9.17;44.46
22743;BME280;11538;48.884;8.696;2023-04-03T13:55:21;99592.22;;;9.18;44.60
22743;BME280;11538;48.884;8.696;2023-04-03T13:58:27;99599.50;;;9.02;44.37
22743;BME280;11538;48.884;8.696;2023-04-03T14:03:56;99597.03;;;8.74;44.24
22743;BME280;11538;48.884;8.696;2023-04-03T14:06:25;99591.31;;;8.66;44.70
22743;BME280;11538;48.884;8.696;2023-04-03T14:08:52;99595.41;;;8.73;44.93
22743;BME280;11538;48.884;8.696;2023-04-03T14:11:24;99596.72;;;8.66;45.11
22743;BME280;11538;48.884;8.696;2023-04-03T14:14:00;99592.69;;;8.73;45.28
22743;BME280;11538;48.884;8.696;2023-04-03T14:16:32;99579.97;;;8.69;46.01
22743;BME280;11538;48.884;8.696;2023-04-03T14:19:04;99582.69;;;8.74;46.11
22743;BME280;11538;48.884;8.696;2023-04-03T14:21:31;99585.94;;;8.91;46.17
22743;BME280;11538;48.884;8.696;2023-04-03T14:23:59;99582.47;;;9.12;45.36
22743;BME280;11538;48.884;8.696;2023-04-03T14:26:28;99583.25;;;9.02;45.06
22743;BME280;11538;48.884;8.696;2023-04-03T14:28:56;99574.34;;;8.91;45.05
22743;BME280;11538;48.884;8.696;2023-04-03T14:31:24;99575.13;;;8.81;45.30
22743;BME280;11538;48.884;8.696;2023-04-03T14:33:52;99568.63;;;8.82;45.85
22743;BME280;11538;48.884;8.696;2023-04-03T14:36:28;99574.59;;;8.95;46.12